Time;durP1;ratioP1;P1;durP2;ratioP2;P2;SDS_P1;SDS_P2;PMS_P1;PMS_P2;Temp;Humidity;BMP_temperature;BMP_pressure;BME280_temperature;BME280_humidity;BME280_pressure;Samples;Min_cycle;Max_cycle;Signal;HPM_P1;HPM_P2
2024/04/12 00:01:03;;;;;;;2.53;1.60;;;24.90;99.90;;;;;;5419078;21;20419;-55
2024/04/12 00:03:31;;;;;;;3.47;2.05;;;24.90;99.90;;;;;;5453062;26;19995;-56
2024/04/12 00:06:00;;;;;;;3.13;2.03;;;24.90;99.90;;;;;;5453223;26;19994;-57
2024/04/12 00:08:30;;;;;;;4.35;1.98;;;24.90;99.90;;;;;;5452723;26;20371;-57
2024/04/12 00:10:57;;;;;;;3.20;1.83;;;24.80;99.90;;;;;;5451215;26;20008;-56
2024/04/12 00:13:26;;;;;;;4.35;2.22;;;24.90;99.90;;;;;;5452909;26;20072;-57
2024/04/12 00:15:58;;;;;;;2.65;2.00;;;24.80;99.90;;;;;;5452742;26;20343;-56
2024/04/12 00:18:28;;;;;;;2.40;1.60;;;24.80;99.90;;;;;;5451199;26;20419;-57
2024/04/12 00:21:01;;;;;;;5.15;2.42;;;24.80;99.90;;;;;;5452754;26;20021;-57
2024/04/12 00:23:30;;;;;;;3.00;1.90;;;24.80;99.90;;;;;;5453525;26;20027;-58
2024/04/12 00:26:03;;;;;;;2.65;1.75;;;24.80;99.90;;;;;;5452905;26;20470;-57
2024/04/12 00:28:34;;;;;;;3.67;2.22;;;24.80;99.90;;;;;;5453230;26;19998;-57
2024/04/12 00:31:01;;;;;;;3.45;2.00;;;24.80;99.90;;;;;;5452769;26;19995;-55
2024/04/12 00:33:31;;;;;;;2.78;2.00;;;24.80;99.90;;;;;;5452930;26;20430;-57
2024/04/12 00:36:09;;;;;;;3.90;2.45;;;24.70;99.90;;;;;;5452810;26;20010;-56
2024/04/12 00:38:35;;;;;;;2.33;1.67;;;24.70;99.90;;;;;;5452756;26;19995;-57
2024/04/12 00:41:11;;;;;;;3.40;2.20;;;24.70;99.90;;;;;;5452937;26;20003;-57
2024/04/12 00:43:50;;;;;;;2.95;2.10;;;24.70;99.90;;;;;;5452296;26;20007;-57
2024/04/12 00:46:24;;;;;;;3.47;2.28;;;24.70;99.90;;;;;;5452240;26;19994;-57
2024/04/12 00:48:52;;;;;;;3.58;2.28;;;24.70;99.90;;;;;;5452598;26;20035;-57
2024/04/12 00:51:19;;;;;;;3.53;2.10;;;24.70;99.90;;;;;;5452532;26;19995;-57
2024/04/12 00:53:46;;;;;;;3.20;1.98;;;24.70;99.90;;;;;;5452760;26;19994;-57
2024/04/12 00:56:13;;;;;;;3.15;1.88;;;24.70;99.90;;;;;;5426721;26;20010;-56
2024/04/12 00:58:41;;;;;;;4.67;1.77;;;24.70;99.90;;;;;;5428071;26;20371;-57
2024/04/12 01:01:15;;;;;;;4.18;2.60;;;24.70;99.90;;;;;;5451522;26;19995;-57
2024/04/12 01:03:46;;;;;;;4.43;1.95;;;24.70;99.90;;;;;;5451494;26;20017;-57
2024/04/12 01:06:16;;;;;;;4.80;2.45;;;24.70;99.90;;;;;;5451575;26;19998;-56
2024/04/12 01:08:45;;;;;;;4.25;2.00;;;24.70;99.90;;;;;;5449574;26;20034;-56
2024/04/12 01:11:13;;;;;;;3.88;1.98;;;24.70;99.90;;;;;;5444060;26;20434;-55
2024/04/12 01:13:40;;;;;;;2.58;1.92;;;24.60;99.90;;;;;;5417984;26;20471;-57
2024/04/12 01:16:06;;;;;;;3.90;2.53;;;24.60;99.90;;;;;;5419237;26;20425;-57
2024/04/12 01:18:33;;;;;;;3.00;2.20;;;24.60;99.90;;;;;;5451851;26;20007;-57
2024/04/12 01:21:10;;;;;;;3.58;2.25;;;24.60;99.90;;;;;;5451758;26;20330;-57
2024/04/12 01:23:48;;;;;;;3.60;1.98;;;24.60;99.90;;;;;;5441731;26;20076;-57
2024/04/12 01:26:17;;;;;;;4.45;2.53;;;24.60;99.90;;;;;;5447387;26;20013;-57
2024/04/12 01:28:43;;;;;;;3.85;1.92;;;24.60;99.90;;;;;;5446488;26;20437;-57
2024/04/12 01:31:15;;;;;;;3.83;2.10;;;24.60;99.90;;;;;;5447975;26;20003;-58
2024/04/12 01:33:51;;;;;;;3.63;1.92;;;24.50;99.90;;;;;;5448120;26;19995;-57
2024/04/12 01:36:19;;;;;;;4.13;2.10;;;24.50;99.90;;;;;;5446197;26;19999;-57
2024/04/12 01:38:57;;;;;;;2.63;1.77;;;24.50;99.90;;;;;;5447781;26;19991;-57
2024/04/12 01:41:31;;;;;;;4.50;2.50;;;24.50;99.90;;;;;;5448710;26;19999;-57
2024/04/12 01:44:04;;;;;;;3.40;2.00;;;24.50;99.90;;;;;;5451552;26;20097;-57
2024/04/12 01:46:37;;;;;;;3.13;1.90;;;24.50;99.90;;;;;;5451874;26;20005;-57
2024/04/12 01:49:10;;;;;;;4.50;2.30;;;24.50;99.90;;;;;;5451875;26;19999;-57
2024/04/12 01:51:37;;;;;;;3.75;2.20;;;24.50;99.90;;;;;;5451592;26;20019;-57
2024/04/12 01:54:17;;;;;;;4.35;2.30;;;24.50;99.90;;;;;;5451380;26;20106;-56
2024/04/12 01:56:47;;;;;;;4.47;2.05;;;24.50;99.90;;;;;;5451165;26;20007;-57
2024/04/12 01:59:21;;;;;;;3.88;2.00;;;24.50;99.90;;;;;;5451352;26;19995;-57
2024/04/12 02:01:50;;;;;;;3.50;2.03;;;24.50;99.90;;;;;;5426317;21;20000;-51
2024/04/12 02:04:18;;;;;;;2.95;1.70;;;24.50;99.90;;;;;;5380005;26;20028;-51
2024/04/12 02:06:45;;;;;;;2.97;2.20;;;24.50;99.90;;;;;;5378269;26;19996;-51
2024/04/12 02:09:14;;;;;;;3.50;1.92;;;24.40;99.90;;;;;;5379906;26;20355;-52
2024/04/12 02:11:42;;;;;;;4.07;2.17;;;24.40;99.90;;;;;;5379814;26;20420;-51
2024/04/12 02:14:08;;;;;;;4.57;1.80;;;24.40;99.90;;;;;;5382362;26;20436;-51
2024/04/12 02:16:37;;;;;;;4.40;1.95;;;24.40;99.90;;;;;;5383413;26;20012;-51
2024/04/12 02:19:06;;;;;;;2.65;1.92;;;24.40;99.90;;;;;;5383513;26;20069;-51
2024/04/12 02:21:32;;;;;;;3.00;2.05;;;24.40;99.90;;;;;;5383452;26;19996;-51
2024/04/12 02:24:01;;;;;;;2.65;1.85;;;24.40;99.90;;;;;;5383199;26;20008;-52
2024/04/12 02:26:29;;;;;;;3.15;2.10;;;24.40;99.90;;;;;;5383486;26;19996;-51
2024/04/12 02:28:59;;;;;;;4.05;2.30;;;24.40;99.90;;;;;;5382984;26;20000;-51
2024/04/12 02:31:24;;;;;;;3.90;2.15;;;24.40;99.90;;;;;;5382655;26;20404;-51
2024/04/12 02:33:54;;;;;;;2.38;1.80;;;24.40;99.90;;;;;;5382382;26;19996;-51
2024/04/12 02:36:21;;;;;;;3.97;2.53;;;24.30;99.90;;;;;;5382608;26;20073;-52
2024/04/12 02:38:50;;;;;;;5.78;2.55;;;24.30;99.90;;;;;;5382943;26;20440;-52
2024/04/12 02:41:17;;;;;;;3.72;2.55;;;24.30;99.90;;;;;;5382927;26;20328;-51
2024/04/12 02:43:55;;;;;;;2.53;2.20;;;24.30;99.90;;;;;;5382847;26;19996;-51
2024/04/12 02:46:22;;;;;;;3.60;2.53;;;24.30;99.90;;;;;;5382521;26;20000;-51
2024/04/12 02:48:48;;;;;;;3.33;2.28;;;24.30;99.90;;;;;;5382627;26;20006;-54
2024/04/12 02:51:18;;;;;;;3.92;2.03;;;24.30;99.90;;;;;;5382747;26;20026;-51
2024/04/12 02:53:47;;;;;;;2.58;1.92;;;24.30;99.90;;;;;;5382466;26;20333;-52
2024/04/12 02:56:14;;;;;;;3.22;2.42;;;24.30;99.90;;;;;;5382898;26;20004;-51
2024/04/12 02:58:44;;;;;;;3.13;2.10;;;24.20;99.90;;;;;;5382861;26;20000;-51
2024/04/12 03:01:18;;;;;;;3.28;2.22;;;24.20;99.90;;;;;;5386367;21;20405;-50
2024/04/12 03:03:52;;;;;;;2.88;1.73;;;24.20;99.90;;;;;;5347639;26;19997;-51
2024/04/12 03:06:31;;;;;;;3.00;1.88;;;24.20;99.90;;;;;;5347611;26;19997;-51
2024/04/12 03:09:00;;;;;;;2.35;1.63;;;24.20;99.90;;;;;;5347514;26;20493;-51
2024/04/12 03:11:45;;;;;;;4.22;2.00;;;24.20;99.90;;;;;;5347380;26;20473;-51
2024/04/12 03:14:12;;;;;;;3.38;2.30;;;24.20;99.90;;;;;;5347390;26;19997;-51
2024/04/12 03:16:40;;;;;;;5.80;2.45;;;24.20;99.90;;;;;;5345911;26;20011;-51
2024/04/12 03:19:10;;;;;;;3.40;2.05;;;24.20;99.90;;;;;;5345996;26;20483;-51
2024/04/12 03:21:37;;;;;;;5.72;2.45;;;24.20;99.90;;;;;;5347669;26;19997;-51
2024/04/12 03:24:04;;;;;;;3.35;1.83;;;24.20;99.90;;;;;;5347124;26;20008;-51
2024/04/12 03:26:31;;;;;;;3.45;2.28;;;24.20;99.90;;;;;;5346765;26;20008;-51
2024/04/12 03:28:59;;;;;;;4.43;2.00;;;24.10;99.90;;;;;;5347236;26;20040;-53
2024/04/12 03:31:26;;;;;;;4.65;2.08;;;24.20;99.90;;;;;;5347111;26;20365;-53
2024/04/12 03:34:00;;;;;;;4.57;2.53;;;24.20;99.90;;;;;;5347169;26;19997;-52
2024/04/12 03:36:28;;;;;;;9.77;2.33;;;24.20;99.90;;;;;;5345267;26;20074;-52
2024/04/12 03:41:46;;;;;;;4.05;2.03;;;24.10;99.90;;;;;;5347495;26;19968;-52
2024/04/12 03:44:13;;;;;;;5.28;1.85;;;24.10;99.90;;;;;;5345239;26;20063;-52
2024/04/12 03:46:40;;;;;;;5.22;2.45;;;24.10;99.90;;;;;;5347352;26;20067;-52
2024/04/12 03:49:09;;;;;;;5.28;2.40;;;24.10;99.90;;;;;;5345464;26;20000;-52
2024/04/12 03:51:42;;;;;;;5.60;1.98;;;24.10;99.90;;;;;;5347236;26;20001;-51
2024/04/12 03:54:11;;;;;;;3.90;1.90;;;24.10;99.90;;;;;;5315808;26;20002;-51
2024/04/12 03:56:37;;;;;;;3.65;2.55;;;24.10;99.90;;;;;;5308807;26;20009;-51
2024/04/12 03:59:03;;;;;;;3.05;2.67;;;24.00;99.90;;;;;;5335932;26;20330;-51
2024/04/12 04:01:31;;;;;;;5.10;2.25;;;24.00;99.90;;;;;;5309235;26;19998;-51
2024/04/12 04:04:10;;;;;;;4.50;2.85;;;24.00;99.90;;;;;;5309152;26;19998;-52
2024/04/12 04:06:39;;;;;;;4.68;2.20;;;24.00;99.90;;;;;;5308790;26;20029;-52
2024/04/12 04:09:05;;;;;;;4.35;2.28;;;24.00;99.90;;;;;;5309578;26;20442;-52
2024/04/12 04:11:42;;;;;;;4.35;2.00;;;24.00;99.90;;;;;;5312320;26;20002;-52
2024/04/12 04:14:09;;;;;;;4.60;2.83;;;24.00;99.90;;;;;;5312645;26;20001;-51
2024/04/12 04:16:36;;;;;;;3.63;2.35;;;24.00;99.90;;;;;;5312110;26;20005;-52
2024/04/12 04:19:12;;;;;;;4.97;2.70;;;24.00;99.90;;;;;;5310414;26;20830;-51
2024/04/12 04:21:41;;;;;;;3.70;2.47;;;24.00;99.90;;;;;;5310587;26;20001;-51
2024/04/12 04:24:11;;;;;;;4.40;2.72;;;24.00;99.90;;;;;;5312557;26;20005;-51
2024/04/12 04:26:41;;;;;;;4.32;2.53;;;24.00;99.90;;;;;;5310626;26;20010;-51
2024/04/12 04:29:09;;;;;;;4.03;2.40;;;23.90;99.90;;;;;;5310282;27;20374;-51
2024/04/12 04:31:52;;;;;;;5.65;2.63;;;23.90;99.90;;;;;;5312235;26;19998;-52
2024/04/12 04:34:19;;;;;;;3.47;2.28;;;23.90;99.90;;;;;;5311996;26;20009;-52
2024/04/12 04:36:49;;;;;;;5.78;3.45;;;23.90;99.90;;;;;;5310615;26;20012;-52
2024/04/12 04:39:16;;;;;;;4.03;2.50;;;23.90;99.90;;;;;;5311818;26;20009;-51
2024/04/12 04:41:50;;;;;;;6.25;3.10;;;23.90;99.90;;;;;;5312020;26;20033;-52
2024/04/12 04:44:16;;;;;;;4.47;2.80;;;23.90;99.90;;;;;;5326322;26;20001;-52
2024/04/12 04:46:46;;;;;;;3.70;2.30;;;23.90;99.90;;;;;;5346420;26;20417;-53
2024/04/12 04:49:17;;;;;;;4.35;2.95;;;23.90;99.90;;;;;;5329634;26;20020;-52
2024/04/12 04:51:45;;;;;;;5.78;3.10;;;23.90;99.90;;;;;;5346260;26;20367;-52
2024/04/12 04:54:13;;;;;;;4.75;2.50;;;23.90;99.90;;;;;;5346344;26;20013;-52
2024/04/12 04:56:42;;;;;;;;;;;23.80;99.90;;;;;;5344685;26;20371;-53
2024/04/12 04:59:18;;;;;;;4.53;2.67;;;23.90;99.90;;;;;;5342721;26;19932;-53
2024/04/12 05:01:48;;;;;;;6.88;3.20;;;23.80;99.90;;;;;;5342762;26;20007;-52
2024/04/12 05:04:20;;;;;;;4.45;2.50;;;23.80;99.90;;;;;;5342375;26;19997;-53
2024/04/12 05:06:51;;;;;;;5.97;2.83;;;23.80;99.90;;;;;;5342713;26;20013;-53
2024/04/12 05:09:18;;;;;;;4.05;2.97;;;23.80;99.90;;;;;;5342305;26;20000;-53
2024/04/12 05:11:54;;;;;;;6.25;2.90;;;23.80;99.90;;;;;;5344361;26;20090;-53
2024/04/12 05:14:46;;;;;;;4.32;2.58;;;23.80;99.90;;;;;;5345996;26;20070;-53
2024/04/12 05:17:09;;;;;;;4.57;3.00;;;23.80;99.90;;;;;;5345813;26;20009;-53
2024/04/12 05:19:43;;;;;;;;;;;23.70;99.90;;;;;;5346506;26;20027;-53
2024/04/12 05:22:19;;;;;;;5.38;2.95;;;23.80;99.90;;;;;;5345897;26;19925;-53
2024/04/12 05:24:52;;;;;;;5.50;2.58;;;23.80;99.90;;;;;;5345942;26;20005;-53
2024/04/12 05:27:18;;;;;;;4.22;3.13;;;23.70;99.90;;;;;;5345785;26;20329;-53
2024/04/12 05:29:45;;;;;;;5.28;2.80;;;23.70;99.90;;;;;;5346066;26;19997;-53
2024/04/12 05:32:12;;;;;;;4.65;3.22;;;23.70;99.90;;;;;;5345793;26;20001;-53
2024/04/12 05:34:40;;;;;;;5.28;2.88;;;23.70;99.90;;;;;;5345746;26;20460;-53
2024/04/12 05:37:08;;;;;;;4.53;2.88;;;23.70;99.90;;;;;;5345675;26;19997;-53
2024/04/12 05:39:35;;;;;;;6.00;2.90;;;23.70;99.90;;;;;;5345561;26;20481;-53
2024/04/12 05:42:05;;;;;;;4.35;2.85;;;23.70;99.90;;;;;;5345413;26;20104;-53
2024/04/12 05:44:34;;;;;;;4.47;2.88;;;23.70;99.90;;;;;;5345162;26;20045;-53
2024/04/12 05:47:09;;;;;;;5.80;3.10;;;23.60;99.90;;;;;;5345442;26;20441;-53
2024/04/12 05:49:36;;;;;;;5.22;2.65;;;23.60;99.90;;;;;;5348309;26;19997;-53
2024/04/12 05:52:03;;;;;;;5.17;2.67;;;23.60;99.90;;;;;;5348623;26;20007;-53
2024/04/12 05:54:44;;;;;;;5.78;3.35;;;23.60;99.90;;;;;;5348431;26;20007;-53
2024/04/12 05:57:11;;;;;;;5.30;3.28;;;23.60;99.90;;;;;;5348381;26;19997;-53
2024/04/12 05:59:40;;;;;;;7.43;3.63;;;23.60;99.90;;;;;;5348487;26;20030;-53
2024/04/12 06:02:06;;;;;;;4.68;2.65;;;23.60;99.90;;;;;;5348525;26;20001;-52
2024/04/12 06:04:32;;;;;;;5.03;3.20;;;23.60;99.90;;;;;;5348334;26;20007;-53
2024/04/12 06:07:01;;;;;;;5.63;3.20;;;23.60;99.90;;;;;;5346920;26;20011;-52
2024/04/12 06:09:27;;;;;;;3.60;2.38;;;23.60;99.90;;;;;;5348367;26;20016;-52
2024/04/12 06:11:54;;;;;;;5.60;3.33;;;23.60;99.90;;;;;;5348185;26;20437;-53
2024/04/12 06:14:21;;;;;;;2.60;2.10;;;23.50;99.90;;;;;;5348100;26;19997;-52
2024/04/12 06:16:52;;;;;;;5.70;3.50;;;23.60;99.90;;;;;;5346823;26;20001;-53
2024/04/12 06:19:18;;;;;;;4.15;2.90;;;23.50;99.90;;;;;;5348222;26;20001;-53
2024/04/12 06:21:48;;;;;;;6.90;3.53;;;23.50;99.90;;;;;;5348309;26;20005;-53
2024/04/12 06:24:29;;;;;;;4.72;3.05;;;23.50;99.90;;;;;;5348456;26;20047;-53
2024/04/12 06:26:57;;;;;;;6.35;2.90;;;23.50;99.90;;;;;;5346267;26;20460;-52
2024/04/12 06:29:27;;;;;;;5.28;2.95;;;23.50;99.90;;;;;;5348174;26;20394;-52
2024/04/12 06:31:56;;;;;;;3.55;2.60;;;23.50;99.90;;;;;;5348208;26;20445;-53
2024/04/12 06:34:22;;;;;;;4.55;3.03;;;23.50;99.90;;;;;;5347969;26;20071;-53
2024/04/12 06:36:56;;;;;;;6.47;2.92;;;23.50;99.90;;;;;;5348405;26;20013;-53
2024/04/12 06:39:26;;;;;;;5.97;3.25;;;23.50;99.90;;;;;;5348239;26;20015;-53
2024/04/12 06:41:57;;;;;;;5.70;3.05;;;23.50;99.90;;;;;;5348015;26;20000;-53
2024/04/12 06:44:24;;;;;;;6.15;2.78;;;23.50;99.90;;;;;;5348022;26;20380;-53
2024/04/12 06:46:51;;;;;;;;;;;23.50;99.90;;;;;;5348663;26;19997;-53
2024/04/12 06:49:19;;;;;;;4.47;2.95;;;23.50;99.90;;;;;;5346572;26;20312;-53
2024/04/12 06:54:35;;;;;;;5.63;3.20;;;23.50;99.90;;;;;;5346456;26;20012;-53
2024/04/12 06:57:06;;;;;;;6.45;3.15;;;23.50;99.90;;;;;;5347919;26;20012;-53
2024/04/12 06:59:35;;;;;;;4.82;2.90;;;23.50;99.90;;;;;;5346464;26;20008;-52
2024/04/12 07:02:06;;;;;;;4.85;2.80;;;23.50;99.90;;;;;;5347769;26;20136;-53
2024/04/12 07:04:32;;;;;;;5.28;3.28;;;23.50;99.90;;;;;;5347906;26;20430;-53
2024/04/12 07:06:59;;;;;;;4.30;3.05;;;23.50;99.90;;;;;;5347657;26;20001;-52
2024/04/12 07:09:25;;;;;;;5.53;3.10;;;23.50;99.90;;;;;;5347479;26;20000;-53
2024/04/12 07:11:53;;;;;;;4.05;3.03;;;23.50;99.90;;;;;;5347552;26;20012;-52
2024/04/12 07:14:22;;;;;;;4.55;2.65;;;23.50;99.90;;;;;;5347865;26;20007;-52
2024/04/12 07:16:49;;;;;;;4.40;1.95;;;23.50;99.90;;;;;;5347888;26;20012;-53
2024/04/12 07:19:18;;;;;;;4.13;2.47;;;23.50;99.90;;;;;;5347480;26;20039;-53
2024/04/12 07:21:44;;;;;;;4.53;3.03;;;23.50;99.90;;;;;;5347402;26;20075;-53
2024/04/12 07:24:15;;;;;;;5.38;3.05;;;23.50;99.90;;;;;;5347397;26;20012;-53
2024/04/12 07:26:41;;;;;;;6.57;3.10;;;23.50;99.90;;;;;;5347576;26;19997;-53
2024/04/12 07:29:07;;;;;;;5.47;2.70;;;23.50;99.90;;;;;;5347651;26;20001;-52
2024/04/12 07:31:36;;;;;;;5.65;3.03;;;23.50;99.90;;;;;;5347298;26;19997;-53
2024/04/12 07:34:03;;;;;;;3.55;2.67;;;23.50;99.90;;;;;;5347241;26;20005;-53
2024/04/12 07:36:32;;;;;;;6.15;3.53;;;23.50;99.90;;;;;;5347214;26;20005;-53
2024/04/12 07:39:07;;;;;;;7.50;2.92;;;23.60;99.90;;;;;;5347174;26;20037;-52
2024/04/12 07:41:43;;;;;;;4.10;2.63;;;23.60;99.90;;;;;;5347105;26;19997;-53
2024/04/12 07:44:12;;;;;;;4.63;3.03;;;23.50;99.90;;;;;;5347317;26;20078;-53
2024/04/12 07:46:42;;;;;;;6.97;3.20;;;23.60;99.90;;;;;;5347082;26;20000;-53
2024/04/12 07:49:13;;;;;;;3.75;2.80;;;23.50;99.90;;;;;;5345253;26;19997;-53
2024/04/12 07:51:39;;;;;;;5.53;3.15;;;23.50;99.90;;;;;;5346810;26;20033;-53
2024/04/12 07:54:06;;;;;;;5.85;3.22;;;23.60;99.90;;;;;;5347147;26;20001;-52
2024/04/12 07:56:38;;;;;;;5.28;2.97;;;23.60;99.90;;;;;;5331548;26;19997;-53
2024/04/12 07:59:13;;;;;;;3.33;2.75;;;23.60;99.90;;;;;;5346621;26;20016;-53
2024/04/12 08:01:45;;;;;;;4.32;2.30;;;23.60;99.90;;;;;;5346276;26;20029;-52
2024/04/12 08:04:22;;;;;;;3.88;2.30;;;23.60;99.90;;;;;;5346733;26;20441;-53
2024/04/12 08:06:55;;;;;;;3.60;2.40;;;23.60;99.90;;;;;;5347022;26;20001;-52
2024/04/12 08:10:09;;;;;;;6.55;2.78;;;23.60;99.90;;;;;;5345069;26;20441;-52
2024/04/12 08:12:26;;;;;;;4.63;2.58;;;23.60;99.90;;;;;;5347759;26;20001;-52
2024/04/12 08:14:52;;;;;;;3.95;2.60;;;23.60;99.90;;;;;;5346870;26;20024;-53
2024/04/12 08:17:19;;;;;;;4.43;2.92;;;23.60;99.90;;;;;;5346558;26;20005;-53
2024/04/12 08:19:47;;;;;;;3.50;2.53;;;23.60;99.90;;;;;;5346445;26;20001;-53
2024/04/12 08:22:18;;;;;;;3.70;2.42;;;23.60;99.90;;;;;;5345815;26;20008;-53
2024/04/12 08:24:51;;;;;;;4.80;2.55;;;23.60;99.90;;;;;;5344812;26;20063;-53
2024/04/12 08:27:25;;;;;;;3.53;2.38;;;23.60;99.90;;;;;;5343283;26;20001;-53
2024/04/12 08:29:52;;;;;;;5.30;2.50;;;23.60;99.90;;;;;;5343315;26;20416;-53
2024/04/12 08:32:27;;;;;;;5.13;2.10;;;23.60;99.90;;;;;;5340963;26;20040;-52
2024/04/12 08:34:55;;;;;;;3.95;2.35;;;23.60;99.90;;;;;;5343183;26;19997;-52
2024/04/12 08:37:30;;;;;;;4.18;2.65;;;23.70;99.90;;;;;;5343027;26;20073;-52
2024/04/12 08:39:57;;;;;;;3.63;1.98;;;23.60;99.90;;;;;;5342983;26;20008;-53
2024/04/12 08:42:29;;;;;;;3.25;2.20;;;23.60;99.90;;;;;;5345658;26;19996;-53
2024/04/12 08:44:59;;;;;;;4.32;2.53;;;23.60;99.90;;;;;;5346552;26;19997;-53
2024/04/12 08:50:06;;;;;;;2.88;1.83;;;23.60;99.90;;;;;;5346982;26;19997;-53
2024/04/12 08:52:49;;;;;;;5.22;2.42;;;23.70;99.90;;;;;;5346289;26;20001;-53
2024/04/12 08:55:20;;;;;;;10.52;2.35;;;23.60;99.90;;;;;;5346111;26;20527;-53
2024/04/12 08:57:57;;;;;;;3.08;1.88;;;23.70;99.90;;;;;;5346107;26;20379;-52
2024/04/12 09:00:31;;;;;;;4.53;2.10;;;23.70;99.90;;;;;;5346167;26;19996;-53
2024/04/12 09:03:02;;;;;;;2.60;1.55;;;23.70;99.90;;;;;;5346020;26;20666;-53
2024/04/12 09:05:36;;;;;;;4.68;2.10;;;23.60;99.90;;;;;;5346089;26;20012;-53
2024/04/12 09:08:03;;;;;;;4.00;2.15;;;23.70;99.90;;;;;;5346134;26;20041;-53
2024/04/12 09:10:35;;;;;;;2.67;1.98;;;23.70;99.90;;;;;;5346057;26;20074;-53
2024/04/12 09:13:02;;;;;;;3.53;1.92;;;23.70;99.90;;;;;;5345984;26;20001;-53
2024/04/12 09:15:32;;;;;;;3.92;2.17;;;23.70;99.90;;;;;;5344080;26;20116;-52
2024/04/12 09:18:02;;;;;;;4.55;2.03;;;23.70;99.90;;;;;;5345994;26;19996;-53
2024/04/12 09:20:35;;;;;;;3.90;1.45;;;23.70;99.90;;;;;;5343973;26;20001;-52
2024/04/12 09:23:15;;;;;;;3.28;1.95;;;23.70;99.90;;;;;;5344609;26;20012;-52
2024/04/12 09:25:43;;;;;;;4.43;1.75;;;23.70;99.90;;;;;;5345907;26;20067;-54
2024/04/12 09:28:13;;;;;;;3.90;1.65;;;23.70;99.90;;;;;;5345719;26;20016;-53
2024/04/12 09:33:31;;;;;;;3.55;1.80;;;23.70;99.90;;;;;;5344470;26;20070;-51
2024/04/12 09:36:13;;;;;;;4.43;1.85;;;23.70;99.90;;;;;;5345553;26;20030;-52
2024/04/12 09:38:40;;;;;;;5.05;1.63;;;23.70;99.90;;;;;;5345223;26;19997;-52
2024/04/12 09:41:31;;;;;;;3.93;1.97;;;23.80;99.90;;;;;;5345633;26;19997;-51
2024/04/12 09:44:03;;;;;;;3.45;2.10;;;23.80;99.90;;;;;;5345567;26;20220;-52
2024/04/12 09:46:47;;;;;;;6.60;1.90;;;23.80;99.90;;;;;;5345432;26;19997;-51
2024/04/12 10:39:44;;;;;;;5.47;2.45;;;24.00;99.90;;;;;;5347820;26;20467;-53
2024/04/12 10:42:14;;;;;;;4.97;2.58;;;24.00;99.90;;;;;;5346178;26;20005;-52
2024/04/12 10:44:49;;;;;;;4.65;2.55;;;24.10;99.90;;;;;;5347797;26;20373;-53
2024/04/12 10:47:20;;;;;;;5.63;2.60;;;24.10;99.90;;;;;;5348116;26;20071;-53
2024/04/12 10:49:46;;;;;;;5.53;2.50;;;24.10;99.90;;;;;;5347823;26;20003;-53
2024/04/12 10:52:14;;;;;;;5.80;2.72;;;24.10;99.90;;;;;;5347765;26;20321;-52
2024/04/12 10:54:43;;;;;;;3.47;2.55;;;24.10;99.90;;;;;;5347708;26;20042;-52
2024/04/12 10:57:13;;;;;;;8.65;2.60;;;24.20;99.90;;;;;;5347729;26;20000;-52
2024/04/12 10:59:42;;;;;;;4.00;2.58;;;24.10;99.90;;;;;;5347839;26;20008;-55
2024/04/12 11:02:10;;;;;;;7.90;2.67;;;24.20;99.90;;;;;;5347776;26;20005;-55
2024/04/12 11:07:24;;;;;;;7.45;2.38;;;24.20;99.90;;;;;;5346231;26;20011;-53
2024/04/12 11:10:00;;;;;;;5.32;3.22;;;24.20;99.90;;;;;;5347545;26;20004;-53
2024/04/12 11:12:40;;;;;;;23.95;3.40;;;24.20;99.90;;;;;;5347742;26;20448;-53
2024/04/12 11:31:07;;;;;;;4.45;2.35;;;24.20;99.90;;;;;;5346675;26;20010;-54
2024/04/12 11:31:59;;;;;;;10.70;2.20;;;24.40;99.90;;;;;;5329222;26;20012;-53
2024/04/12 11:34:29;;;;;;;4.50;2.35;;;24.40;99.90;;;;;;5319303;26;20049;-52
2024/04/12 11:37:05;;;;;;;5.90;2.60;;;24.40;99.90;;;;;;5312911;26;19998;-52
2024/04/12 11:39:35;;;;;;;4.97;2.00;;;24.40;99.90;;;;;;5326757;26;20024;-52
2024/04/12 11:42:05;;;;;;;7.13;1.80;;;24.50;99.90;;;;;;5330892;26;20016;-52
2024/04/12 11:44:35;;;;;;;6.90;2.08;;;24.50;99.90;;;;;;5329512;26;20013;-53
2024/04/12 11:47:03;;;;;;;6.40;1.90;;;24.50;99.90;;;;;;5326907;26;20006;-53
2024/04/12 11:49:41;;;;;;;5.78;2.08;;;24.50;99.90;;;;;;5329564;26;20005;-53
2024/04/12 11:52:15;;;;;;;5.85;1.55;;;24.50;99.90;;;;;;5327867;26;20033;-52
2024/04/12 11:54:56;;;;;;;3.33;1.80;;;24.60;99.90;;;;;;5330034;26;20582;-51
2024/04/12 11:57:26;;;;;;;3.50;1.40;;;24.60;99.90;;;;;;5327260;26;20057;-52
2024/04/12 11:59:58;;;;;;;6.22;1.55;;;24.60;99.90;;;;;;5328403;26;20020;-52
2024/04/12 12:02:25;;;;;;;7.60;2.05;;;24.60;99.90;;;;;;5321382;26;20002;-51
2024/04/12 12:04:51;;;;;;;10.05;1.80;;;24.70;99.90;;;;;;5329181;26;20080;-52
2024/04/12 12:07:17;;;;;;;5.40;1.50;;;24.70;99.90;;;;;;5327678;26;20001;-52
2024/04/12 12:09:43;;;;;;;2.78;1.52;;;24.70;99.90;;;;;;5330886;26;20481;-52
2024/04/12 12:12:12;;;;;;;2.38;1.42;;;24.70;99.90;;;;;;5328470;26;20002;-52
2024/04/12 12:14:41;;;;;;;6.82;1.90;;;24.70;99.90;;;;;;5326722;26;20010;-51
2024/04/12 12:17:08;;;;;;;5.28;1.63;;;24.80;99.90;;;;;;5329639;26;20005;-52
2024/04/12 12:19:34;;;;;;;5.40;1.48;;;24.80;99.90;;;;;;5329678;26;20033;-51
2024/04/12 12:22:00;;;;;;;5.75;1.48;;;24.80;99.90;;;;;;5326469;26;20345;-52
2024/04/12 12:24:27;;;;;;;5.47;1.58;;;24.80;99.90;;;;;;5328945;26;20034;-53
2024/04/12 12:26:53;;;;;;;5.78;1.50;;;24.80;99.90;;;;;;5327184;26;20004;-51
2024/04/12 12:29:21;;;;;;;3.38;1.40;;;24.90;99.90;;;;;;5324937;26;20029;-51
2024/04/12 12:31:48;;;;;;;4.88;1.27;;;24.90;99.90;;;;;;5302714;26;20005;-52
2024/04/12 12:34:14;;;;;;;7.57;1.42;;;24.90;99.90;;;;;;5308051;27;20442;-52
2024/04/12 12:36:44;;;;;;;6.35;1.23;;;24.90;99.90;;;;;;5328718;26;20005;-52
2024/04/12 12:39:10;;;;;;;4.45;1.40;;;25.00;99.90;;;;;;5337555;26;20015;-52
2024/04/12 12:41:36;;;;;;;3.80;1.30;;;24.90;99.90;;;;;;5344249;26;20005;-52
2024/04/12 12:44:06;;;;;;;4.95;1.27;;;25.00;99.90;;;;;;5339811;26;20641;-52
2024/04/12 12:46:32;;;;;;;8.32;1.25;;;25.00;99.90;;;;;;5326319;26;20331;-51
2024/04/12 12:48:58;;;;;;;12.60;1.88;;;25.00;99.90;;;;;;5325875;26;20045;-51
2024/04/12 12:51:26;;;;;;;5.30;1.50;;;25.00;99.90;;;;;;5329918;26;20016;-52
2024/04/12 12:53:55;;;;;;;6.25;1.60;;;25.00;99.90;;;;;;5339289;26;20364;-52
2024/04/12 12:56:22;;;;;;;4.57;1.52;;;25.00;99.90;;;;;;5326609;26;20586;-52
2024/04/12 12:58:48;;;;;;;4.13;1.40;;;25.00;99.90;;;;;;5335330;26;20014;-53
2024/04/12 13:01:16;;;;;;;2.22;1.02;;;25.10;99.90;;;;;;5324052;26;20530;-52
2024/04/12 13:03:43;;;;;;;2.65;1.25;;;25.10;99.90;;;;;;5326119;26;20023;-51
2024/04/12 13:06:21;;;;;;;5.28;1.38;;;25.10;99.90;;;;;;5307313;27;20465;-51
2024/04/12 13:08:51;;;;;;;3.45;1.25;;;25.10;99.90;;;;;;5305704;26;20013;-52
2024/04/12 13:11:24;;;;;;;4.65;0.98;;;25.10;99.90;;;;;;5309841;27;20012;-52
2024/04/12 13:13:50;;;;;;;3.25;1.30;;;25.10;99.90;;;;;;5310035;27;20614;-52
2024/04/12 13:16:17;;;;;;;3.53;1.47;;;25.20;99.90;;;;;;5308990;26;20010;-52
2024/04/12 13:18:52;;;;;;;4.05;1.30;;;25.20;99.90;;;;;;5308901;26;20005;-52
2024/04/12 13:21:18;;;;;;;3.45;1.33;;;25.20;99.90;;;;;;5335941;26;20029;-51
2024/04/12 13:23:48;;;;;;;4.88;1.33;;;25.20;99.90;;;;;;5327765;26;20004;-52
2024/04/12 13:26:23;;;;;;;5.88;0.93;;;25.20;99.90;;;;;;5338119;26;20005;-52
2024/04/12 13:28:53;;;;;;;5.82;1.63;;;25.20;99.90;;;;;;5339438;26;20449;-51
2024/04/12 13:31:29;;;;;;;4.93;1.63;;;25.30;99.90;;;;;;5344970;26;20464;-52
2024/04/12 13:33:55;;;;;;;4.50;1.35;;;25.30;99.90;;;;;;5344682;26;20078;-52
2024/04/12 13:36:22;;;;;;;4.40;1.30;;;25.30;99.90;;;;;;5350702;26;20078;-53
2024/04/12 13:38:49;;;;;;;4.55;1.33;;;25.30;99.90;;;;;;5353667;26;20556;-52
2024/04/12 13:41:15;;;;;;;4.97;1.20;;;25.30;99.90;;;;;;5344950;26;20016;-52
2024/04/12 13:43:46;;;;;;;3.85;1.38;;;25.30;99.90;;;;;;5343187;26;20001;-52
2024/04/12 13:51:49;;;;;;;4.93;1.23;;;25.40;99.90;;;;;;5345205;26;20019;-52
2024/04/12 13:54:23;;;;;;;4.38;1.58;;;25.40;99.90;;;;;;5352701;26;20032;-52
2024/04/12 13:56:56;;;;;;;6.57;1.70;;;25.40;99.90;;;;;;5344585;26;20021;-51
2024/04/12 13:59:30;;;;;;;7.38;1.75;;;25.40;99.90;;;;;;5356725;26;20019;-52
2024/04/12 14:01:56;;;;;;;7.63;1.60;;;25.40;99.90;;;;;;5354031;26;20000;-51
2024/04/12 14:04:27;;;;;;;8.70;1.70;;;25.40;99.90;;;;;;5376664;26;20000;-51
2024/04/12 14:06:53;;;;;;;6.68;1.65;;;25.50;99.90;;;;;;5376833;26;20004;-51
2024/04/12 14:09:22;;;;;;;6.10;1.60;;;25.50;99.90;;;;;;5355634;26;20024;-52
2024/04/12 14:11:51;;;;;;;7.07;1.88;;;25.50;99.90;;;;;;5347851;26;20009;-52
2024/04/12 14:14:20;;;;;;;5.25;1.70;;;25.50;99.90;;;;;;5353010;26;20005;-53
2024/04/12 14:16:51;;;;;;;5.20;1.52;;;25.50;99.90;;;;;;5347635;26;20005;-52
2024/04/12 14:19:18;;;;;;;9.07;1.85;;;25.50;99.90;;;;;;5358672;26;20146;-53
2024/04/12 14:21:49;;;;;;;8.93;2.05;;;25.60;99.90;;;;;;5352318;26;20015;-52
2024/04/12 14:27:00;;;;;;;7.38;1.40;;;25.60;99.90;;;;;;5346688;26;20015;-51
2024/04/12 14:29:27;;;;;;;4.43;1.80;;;25.60;99.90;;;;;;5363603;26;20005;-50